
<gpx xmlns="http://www.topografix.com/GPX/1/1" xmlns:gpxx="http://www.garmin.com/xmlschemas/GpxExtensions/v3" xmlns:xsi="http://www.w3.org/2001/XMLSchema-instance" version="1.1" creator="Adze - https://getadze.com/" xsi:schemaLocation="http://www.topografix.com/GPX/1/1 http://www.topografix.com/GPX/1/1/gpx.xsd http://www.garmin.com/xmlschemas/GpxExtensions/v3 http://www.garmin.com/xmlschemas/GpxExtensionsv3.xsd">
    <metadata>
        <name>Untitled Document</name>
        <link href="http://www.garmin.com"></link>
        <time>2018-03-08T04:07:50.280Z</time>
    </metadata>
    <wpt lon="101.867598" lat="14.141985">
        <ele>38.000000</ele>
        <name>Nong Nooch resort</name>
        <cmt>28-JUN-09 10:02:10</cmt>
        <desc>28-JUN-09 10:02:10</desc>
        <sym>Lodging</sym>
        <extensions>
            <gpxx:WaypointExtension xmlns:gpxx="http://www.garmin.com/xmlschemas/GpxExtensions/v3">
                <gpxx:DisplayMode>SymbolAndName</gpxx:DisplayMode>
            </gpxx:WaypointExtension>
        </extensions>
    </wpt>
    <trk>
        <name>June 2009 - Saturday</name>
        <extensions>
            <gpxx:TrackExtension xmlns:gpxx="http://www.garmin.com/xmlschemas/GpxExtensions/v3">
                <gpxx:DisplayColor>Red</gpxx:DisplayColor>
            </gpxx:TrackExtension>
        </extensions>
        <trkseg>
            <trkpt lon="101.867568" lat="14.142377">
                <ele>38.590088</ele>
                <time>2009-06-27T05:56:06Z</time>
            </trkpt>
            <trkpt lon="101.867502" lat="14.142047">
                <ele>41.954712</ele>
                <time>2009-06-27T05:56:39Z</time>
            </trkpt>
            <trkpt lon="101.867922" lat="14.141910">
                <ele>65.507080</ele>
                <time>2009-06-27T05:58:54Z</time>
            </trkpt>
            <trkpt lon="101.868426" lat="14.141528">
                <ele>35.706055</ele>
                <time>2009-06-27T06:03:35Z</time>
            </trkpt>
            <trkpt lon="101.869065" lat="14.140738">
                <ele>35.225464</ele>
                <time>2009-06-27T06:03:56Z</time>
            </trkpt>
            <trkpt lon="101.869083" lat="14.140515">
                <ele>35.706055</ele>
                <time>2009-06-27T06:04:01Z</time>
            </trkpt>
            <trkpt lon="101.869353" lat="14.140308">
                <ele>36.186768</ele>
                <time>2009-06-27T06:04:10Z</time>
            </trkpt>
            <trkpt lon="101.870023" lat="14.140552">
                <ele>37.628662</ele>
                <time>2009-06-27T06:04:25Z</time>
            </trkpt>
            <trkpt lon="101.870589" lat="14.140361">
                <ele>40.993408</ele>
                <time>2009-06-27T06:04:39Z</time>
            </trkpt>
            <trkpt lon="101.871586" lat="14.140434">
                <ele>40.032105</ele>
                <time>2009-06-27T06:04:51Z</time>
            </trkpt>
            <trkpt lon="101.872591" lat="14.140201">
                <ele>40.032105</ele>
                <time>2009-06-27T06:05:19Z</time>
            </trkpt>
            <trkpt lon="101.876224" lat="14.140011">
                <ele>42.916016</ele>
                <time>2009-06-27T06:06:31Z</time>
            </trkpt>
            <trkpt lon="101.878152" lat="14.138675">
                <ele>46.280640</ele>
                <time>2009-06-27T06:07:26Z</time>
            </trkpt>
            <trkpt lon="101.885132" lat="14.145283">
                <ele>56.374512</ele>
                <time>2009-06-27T06:10:17Z</time>
            </trkpt>
            <trkpt lon="101.885956" lat="14.146121">
                <ele>55.893799</ele>
                <time>2009-06-27T06:10:38Z</time>
            </trkpt>
            <trkpt lon="101.886526" lat="14.146940">
                <ele>54.932373</ele>
                <time>2009-06-27T06:10:54Z</time>
            </trkpt>
            <trkpt lon="101.886681" lat="14.147964">
                <ele>54.932373</ele>
                <time>2009-06-27T06:11:12Z</time>
            </trkpt>
            <trkpt lon="101.886391" lat="14.150703">
                <ele>56.855103</ele>
                <time>2009-06-27T06:12:01Z</time>
            </trkpt>
            <trkpt lon="101.886338" lat="14.151188">
                <ele>56.374512</ele>
                <time>2009-06-27T06:12:17Z</time>
            </trkpt>
            <trkpt lon="101.886632" lat="14.151178">
                <ele>56.855103</ele>
                <time>2009-06-27T06:12:40Z</time>
            </trkpt>
            <trkpt lon="101.886612" lat="14.151744">
                <ele>55.413086</ele>
                <time>2009-06-27T06:13:02Z</time>
            </trkpt>
            <trkpt lon="101.886232" lat="14.152159">
                <ele>53.971191</ele>
                <time>2009-06-27T06:13:21Z</time>
            </trkpt>
            <trkpt lon="101.886149" lat="14.153202">
                <ele>48.683960</ele>
                <time>2009-06-27T06:13:36Z</time>
            </trkpt>
            <trkpt lon="101.886319" lat="14.154368">
                <ele>48.683960</ele>
                <time>2009-06-27T06:13:50Z</time>
            </trkpt>
            <trkpt lon="101.886938" lat="14.155712">
                <ele>53.971191</ele>
                <time>2009-06-27T06:14:17Z</time>
            </trkpt>
            <trkpt lon="101.887797" lat="14.155404">
                <ele>54.451782</ele>
                <time>2009-06-27T06:14:34Z</time>
            </trkpt>
            <trkpt lon="101.888548" lat="14.154901">
                <ele>60.219727</ele>
                <time>2009-06-27T06:15:04Z</time>
            </trkpt>
            <trkpt lon="101.888946" lat="14.154689">
                <ele>61.661743</ele>
                <time>2009-06-27T06:15:20Z</time>
            </trkpt>
            <trkpt lon="101.889553" lat="14.154528">
                <ele>62.622925</ele>
                <time>2009-06-27T06:15:35Z</time>
            </trkpt>
            <trkpt lon="101.893191" lat="14.153560">
                <ele>62.142334</ele>
                <time>2009-06-27T06:16:54Z</time>
            </trkpt>
            <trkpt lon="101.894598" lat="14.153893">
                <ele>71.755493</ele>
                <time>2009-06-27T06:17:42Z</time>
            </trkpt>
            <trkpt lon="101.895129" lat="14.154182">
                <ele>76.562134</ele>
                <time>2009-06-27T06:18:06Z</time>
            </trkpt>
            <trkpt lon="101.895909" lat="14.154092">
                <ele>80.407471</ele>
                <time>2009-06-27T06:18:33Z</time>
            </trkpt>
            <trkpt lon="101.896619" lat="14.154540">
                <ele>86.656006</ele>
                <time>2009-06-27T06:19:07Z</time>
            </trkpt>
            <trkpt lon="101.898151" lat="14.155637">
                <ele>95.307739</ele>
                <time>2009-06-27T06:20:13Z</time>
            </trkpt>
            <trkpt lon="101.900301" lat="14.155500">
                <ele>106.843628</ele>
                <time>2009-06-27T06:21:43Z</time>
            </trkpt>
            <trkpt lon="101.901600" lat="14.155678">
                <ele>117.898804</ele>
                <time>2009-06-27T06:22:49Z</time>
            </trkpt>
            <trkpt lon="101.902457" lat="14.156147">
                <ele>121.744141</ele>
                <time>2009-06-27T06:23:36Z</time>
            </trkpt>
            <trkpt lon="101.903244" lat="14.156146">
                <ele>127.511963</ele>
                <time>2009-06-27T06:24:07Z</time>
            </trkpt>
            <trkpt lon="101.903540" lat="14.156228">
                <ele>127.992554</ele>
                <time>2009-06-27T06:24:20Z</time>
            </trkpt>
            <trkpt lon="101.903838" lat="14.156535">
                <ele>129.434692</ele>
                <time>2009-06-27T06:24:37Z</time>
            </trkpt>
            <trkpt lon="101.904377" lat="14.160207">
                <ele>146.257812</ele>
                <time>2009-06-27T06:27:13Z</time>
            </trkpt>
            <trkpt lon="101.904861" lat="14.161467">
                <ele>152.986939</ele>
                <time>2009-06-27T06:28:05Z</time>
            </trkpt>
            <trkpt lon="101.905031" lat="14.161964">
                <ele>153.948364</ele>
                <time>2009-06-27T06:28:22Z</time>
            </trkpt>
            <trkpt lon="101.905181" lat="14.164275">
                <ele>162.600098</ele>
                <time>2009-06-27T06:29:54Z</time>
            </trkpt>
            <trkpt lon="101.905650" lat="14.165019">
                <ele>169.329468</ele>
                <time>2009-06-27T06:30:39Z</time>
            </trkpt>
            <trkpt lon="101.906189" lat="14.166294">
                <ele>177.500610</ele>
                <time>2009-06-27T06:31:42Z</time>
            </trkpt>
            <trkpt lon="101.907103" lat="14.167052">
                <ele>184.229858</ele>
                <time>2009-06-27T06:32:43Z</time>
            </trkpt>
            <trkpt lon="101.907241" lat="14.167296">
                <ele>186.633179</ele>
                <time>2009-06-27T06:33:01Z</time>
            </trkpt>
            <trkpt lon="101.907001" lat="14.167899">
                <ele>190.958984</ele>
                <time>2009-06-27T06:34:53Z</time>
            </trkpt>
            <trkpt lon="101.908201" lat="14.167941">
                <ele>197.688232</ele>
                <time>2009-06-27T06:36:00Z</time>
            </trkpt>
            <trkpt lon="101.909024" lat="14.168625">
                <ele>209.224121</ele>
                <time>2009-06-27T06:37:15Z</time>
            </trkpt>
            <trkpt lon="101.909093" lat="14.168855">
                <ele>211.146728</ele>
                <time>2009-06-27T06:37:31Z</time>
            </trkpt>
            <trkpt lon="101.909378" lat="14.169128">
                <ele>214.991943</ele>
                <time>2009-06-27T06:37:59Z</time>
            </trkpt>
            <trkpt lon="101.909740" lat="14.169271">
                <ele>217.395386</ele>
                <time>2009-06-27T06:38:23Z</time>
            </trkpt>
            <trkpt lon="101.910047" lat="14.168811">
                <ele>217.395386</ele>
                <time>2009-06-27T06:38:42Z</time>
            </trkpt>
            <trkpt lon="101.910691" lat="14.167437">
                <ele>213.550049</ele>
                <time>2009-06-27T06:39:26Z</time>
            </trkpt>
            <trkpt lon="101.911232" lat="14.166806">
                <ele>211.627441</ele>
                <time>2009-06-27T06:39:52Z</time>
            </trkpt>
            <trkpt lon="101.912237" lat="14.165517">
                <ele>196.726929</ele>
                <time>2009-06-27T06:40:34Z</time>
            </trkpt>
            <trkpt lon="101.912929" lat="14.164018">
                <ele>187.113769</ele>
                <time>2009-06-27T06:41:29Z</time>
            </trkpt>
            <trkpt lon="101.913629" lat="14.162419">
                <ele>171.732666</ele>
                <time>2009-06-27T06:42:19Z</time>
            </trkpt>
            <trkpt lon="101.914528" lat="14.160978">
                <ele>163.561523</ele>
                <time>2009-06-27T06:44:03Z</time>
            </trkpt>
            <trkpt lon="101.915177" lat="14.160286">
                <ele>155.870972</ele>
                <time>2009-06-27T06:45:32Z</time>
            </trkpt>
            <trkpt lon="101.915353" lat="14.159780">
                <ele>157.312866</ele>
                <time>2009-06-27T06:47:16Z</time>
            </trkpt>
            <trkpt lon="101.916935" lat="14.159434">
                <ele>165.003418</ele>
                <time>2009-06-27T06:48:12Z</time>
            </trkpt>
            <trkpt lon="101.917159" lat="14.159142">
                <ele>163.561523</ele>
                <time>2009-06-27T06:48:28Z</time>
            </trkpt>
            <trkpt lon="101.917855" lat="14.159599">
                <ele>170.290649</ele>
                <time>2009-06-27T06:49:16Z</time>
            </trkpt>
            <trkpt lon="101.917899" lat="14.159675">
                <ele>170.771362</ele>
                <time>2009-06-27T06:49:21Z</time>
            </trkpt>
            <trkpt lon="101.918559" lat="14.160127">
                <ele>173.174683</ele>
                <time>2009-06-27T06:50:04Z</time>
            </trkpt>
            <trkpt lon="101.920209" lat="14.161646">
                <ele>188.555786</ele>
                <time>2009-06-27T06:52:40Z</time>
            </trkpt>
            <trkpt lon="101.921141" lat="14.162491">
                <ele>168.848755</ele>
                <time>2009-06-27T06:54:12Z</time>
            </trkpt>
            <trkpt lon="101.921253" lat="14.162721">
                <ele>168.368042</ele>
                <time>2009-06-27T06:54:22Z</time>
            </trkpt>
            <trkpt lon="101.921655" lat="14.162912">
                <ele>166.926025</ele>
                <time>2009-06-27T06:54:42Z</time>
            </trkpt>
            <trkpt lon="101.922071" lat="14.163006">
                <ele>170.290649</ele>
                <time>2009-06-27T06:55:07Z</time>
            </trkpt>
            <trkpt lon="101.922843" lat="14.163041">
                <ele>162.119507</ele>
                <time>2009-06-27T06:55:36Z</time>
            </trkpt>
            <trkpt lon="101.924014" lat="14.163445">
                <ele>164.042114</ele>
                <time>2009-06-27T06:56:18Z</time>
            </trkpt>
            <trkpt lon="101.924223" lat="14.163178">
                <ele>165.964722</ele>
                <time>2009-06-27T06:56:30Z</time>
            </trkpt>
            <trkpt lon="101.924107" lat="14.162651">
                <ele>163.080811</ele>
                <time>2009-06-27T06:56:49Z</time>
            </trkpt>
            <trkpt lon="101.924276" lat="14.162350">
                <ele>160.196899</ele>
                <time>2009-06-27T06:56:59Z</time>
            </trkpt>
            <trkpt lon="101.924518" lat="14.162231">
                <ele>157.312866</ele>
                <time>2009-06-27T06:57:08Z</time>
            </trkpt>
            <trkpt lon="101.924906" lat="14.161758">
                <ele>145.296387</ele>
                <time>2009-06-27T06:57:27Z</time>
            </trkpt>
            <trkpt lon="101.924976" lat="14.161432">
                <ele>141.451050</ele>
                <time>2009-06-27T06:57:40Z</time>
            </trkpt>
            <trkpt lon="101.924950" lat="14.161023">
                <ele>140.009155</ele>
                <time>2009-06-27T06:57:51Z</time>
            </trkpt>
            <trkpt lon="101.924523" lat="14.159906">
                <ele>139.528442</ele>
                <time>2009-06-27T06:58:22Z</time>
            </trkpt>
            <trkpt lon="101.923235" lat="14.159285">
                <ele>126.550659</ele>
                <time>2009-06-27T06:59:02Z</time>
            </trkpt>
            <trkpt lon="101.923085" lat="14.158922">
                <ele>124.147339</ele>
                <time>2009-06-27T06:59:14Z</time>
            </trkpt>
            <trkpt lon="101.922596" lat="14.158750">
                <ele>121.263550</ele>
                <time>2009-06-27T06:59:43Z</time>
            </trkpt>
            <trkpt lon="101.922665" lat="14.158511">
                <ele>122.224731</ele>
                <time>2009-06-27T06:59:54Z</time>
            </trkpt>
            <trkpt lon="101.924279" lat="14.156527">
                <ele>109.727661</ele>
                <time>2009-06-27T07:00:39Z</time>
            </trkpt>
            <trkpt lon="101.925184" lat="14.156175">
                <ele>112.130981</ele>
                <time>2009-06-27T07:04:42Z</time>
            </trkpt>
            <trkpt lon="101.925982" lat="14.156530">
                <ele>101.075684</ele>
                <time>2009-06-27T07:05:35Z</time>
            </trkpt>
            <trkpt lon="101.926975" lat="14.157434">
                <ele>74.158813</ele>
                <time>2009-06-27T07:06:09Z</time>
            </trkpt>
            <trkpt lon="101.927154" lat="14.157761">
                <ele>71.274902</ele>
                <time>2009-06-27T07:06:22Z</time>
            </trkpt>
            <trkpt lon="101.927791" lat="14.157948">
                <ele>67.910278</ele>
                <time>2009-06-27T07:06:53Z</time>
            </trkpt>
            <trkpt lon="101.928389" lat="14.157715">
                <ele>67.910278</ele>
                <time>2009-06-27T07:07:53Z</time>
            </trkpt>
            <trkpt lon="101.928442" lat="14.157353">
                <ele>77.523438</ele>
                <time>2009-06-27T07:08:24Z</time>
            </trkpt>
            <trkpt lon="101.928601" lat="14.157112">
                <ele>83.291382</ele>
                <time>2009-06-27T07:08:45Z</time>
            </trkpt>
            <trkpt lon="101.928990" lat="14.156284">
                <ele>84.733398</ele>
                <time>2009-06-27T07:09:24Z</time>
            </trkpt>
            <trkpt lon="101.929126" lat="14.155640">
                <ele>88.098022</ele>
                <time>2009-06-27T07:09:56Z</time>
            </trkpt>
            <trkpt lon="101.929423" lat="14.154857">
                <ele>88.578735</ele>
                <time>2009-06-27T07:10:26Z</time>
            </trkpt>
            <trkpt lon="101.929591" lat="14.153472">
                <ele>101.075684</ele>
                <time>2009-06-27T07:11:39Z</time>
            </trkpt>
            <trkpt lon="101.929529" lat="14.153013">
                <ele>103.479004</ele>
                <time>2009-06-27T07:12:03Z</time>
            </trkpt>
            <trkpt lon="101.929507" lat="14.152754">
                <ele>102.037109</ele>
                <time>2009-06-27T07:12:10Z</time>
            </trkpt>
            <trkpt lon="101.929937" lat="14.152711">
                <ele>108.766235</ele>
                <time>2009-06-27T07:12:47Z</time>
            </trkpt>
            <trkpt lon="101.930141" lat="14.152492">
                <ele>109.727661</ele>
                <time>2009-06-27T07:13:08Z</time>
            </trkpt>
            <trkpt lon="101.930482" lat="14.153165">
                <ele>112.611572</ele>
                <time>2009-06-27T07:13:48Z</time>
            </trkpt>
            <trkpt lon="101.931034" lat="14.153690">
                <ele>117.418213</ele>
                <time>2009-06-27T07:14:30Z</time>
            </trkpt>
            <trkpt lon="101.932386" lat="14.154378">
                <ele>134.721924</ele>
                <time>2009-06-27T07:16:30Z</time>
            </trkpt>
            <trkpt lon="101.932856" lat="14.154503">
                <ele>139.047852</ele>
                <time>2009-06-27T07:17:07Z</time>
            </trkpt>
            <trkpt lon="101.933409" lat="14.154713">
                <ele>142.412476</ele>
                <time>2009-06-27T07:17:45Z</time>
            </trkpt>
            <trkpt lon="101.933563" lat="14.154886">
                <ele>144.815796</ele>
                <time>2009-06-27T07:18:01Z</time>
            </trkpt>
            <trkpt lon="101.934048" lat="14.154810">
                <ele>142.893066</ele>
                <time>2009-06-27T07:18:31Z</time>
            </trkpt>
            <trkpt lon="101.933944" lat="14.153988">
                <ele>137.605835</ele>
                <time>2009-06-27T07:18:51Z</time>
            </trkpt>
            <trkpt lon="101.933763" lat="14.152850">
                <ele>125.108765</ele>
                <time>2009-06-27T07:19:12Z</time>
            </trkpt>
            <trkpt lon="101.933375" lat="14.151245">
                <ele>106.843628</ele>
                <time>2009-06-27T07:20:23Z</time>
            </trkpt>
            <trkpt lon="101.933073" lat="14.150788">
                <ele>101.556397</ele>
                <time>2009-06-27T07:21:23Z</time>
            </trkpt>
            <trkpt lon="101.932507" lat="14.150756">
                <ele>104.921020</ele>
                <time>2009-06-27T07:21:50Z</time>
            </trkpt>
            <trkpt lon="101.931860" lat="14.151068">
                <ele>105.882446</ele>
                <time>2009-06-27T07:22:17Z</time>
            </trkpt>
            <trkpt lon="101.931251" lat="14.151103">
                <ele>105.882446</ele>
                <time>2009-06-27T07:22:38Z</time>
            </trkpt>
            <trkpt lon="101.930449" lat="14.151607">
                <ele>107.805054</ele>
                <time>2009-06-27T07:23:04Z</time>
            </trkpt>
            <trkpt lon="101.930230" lat="14.151722">
                <ele>106.363037</ele>
                <time>2009-06-27T07:23:10Z</time>
            </trkpt>
            <trkpt lon="101.930101" lat="14.151971">
                <ele>106.363037</ele>
                <time>2009-06-27T07:23:17Z</time>
            </trkpt>
            <trkpt lon="101.930213" lat="14.152569">
                <ele>111.650269</ele>
                <time>2009-06-27T07:24:07Z</time>
            </trkpt>
            <trkpt lon="101.930185" lat="14.151773">
                <ele>105.401733</ele>
                <time>2009-06-27T07:26:03Z</time>
            </trkpt>
            <trkpt lon="101.930976" lat="14.151203">
                <ele>106.843628</ele>
                <time>2009-06-27T07:26:39Z</time>
            </trkpt>
            <trkpt lon="101.932168" lat="14.150971">
                <ele>105.882446</ele>
                <time>2009-06-27T07:27:19Z</time>
            </trkpt>
            <trkpt lon="101.932381" lat="14.150787">
                <ele>105.401733</ele>
                <time>2009-06-27T07:27:30Z</time>
            </trkpt>
            <trkpt lon="101.933252" lat="14.150714">
                <ele>98.191895</ele>
                <time>2009-06-27T07:28:00Z</time>
            </trkpt>
            <trkpt lon="101.934018" lat="14.150960">
                <ele>100.595093</ele>
                <time>2009-06-27T07:29:41Z</time>
            </trkpt>
            <trkpt lon="101.935612" lat="14.151599">
                <ele>100.114502</ele>
                <time>2009-06-27T07:30:48Z</time>
            </trkpt>
            <trkpt lon="101.937120" lat="14.151363">
                <ele>103.479004</ele>
                <time>2009-06-27T07:31:48Z</time>
            </trkpt>
            <trkpt lon="101.937618" lat="14.151821">
                <ele>108.285645</ele>
                <time>2009-06-27T07:32:17Z</time>
            </trkpt>
            <trkpt lon="101.939470" lat="14.151017">
                <ele>124.628052</ele>
                <time>2009-06-27T07:34:07Z</time>
            </trkpt>
            <trkpt lon="101.939414" lat="14.151165">
                <ele>123.186157</ele>
                <time>2009-06-27T07:34:25Z</time>
            </trkpt>
            <trkpt lon="101.939819" lat="14.151818">
                <ele>129.915283</ele>
                <time>2009-06-27T07:36:00Z</time>
            </trkpt>
            <trkpt lon="101.939315" lat="14.151085">
                <ele>119.340820</ele>
                <time>2009-06-27T07:37:50Z</time>
            </trkpt>
            <trkpt lon="101.938644" lat="14.151308">
                <ele>112.130981</ele>
                <time>2009-06-27T07:38:59Z</time>
            </trkpt>
            <trkpt lon="101.938405" lat="14.150079">
                <ele>105.401733</ele>
                <time>2009-06-27T07:40:40Z</time>
            </trkpt>
            <trkpt lon="101.938823" lat="14.149886">
                <ele>104.921020</ele>
                <time>2009-06-27T07:41:31Z</time>
            </trkpt>
            <trkpt lon="101.938797" lat="14.149566">
                <ele>106.363037</ele>
                <time>2009-06-27T07:42:07Z</time>
            </trkpt>
            <trkpt lon="101.938901" lat="14.149147">
                <ele>103.959717</ele>
                <time>2009-06-27T07:43:31Z</time>
            </trkpt>
            <trkpt lon="101.941353" lat="14.150422">
                <ele>133.279907</ele>
                <time>2009-06-27T07:46:56Z</time>
            </trkpt>
            <trkpt lon="101.942058" lat="14.150514">
                <ele>135.683106</ele>
                <time>2009-06-27T07:47:45Z</time>
            </trkpt>
            <trkpt lon="101.943218" lat="14.150142">
                <ele>153.467651</ele>
                <time>2009-06-27T07:50:11Z</time>
            </trkpt>
            <trkpt lon="101.943601" lat="14.149995">
                <ele>156.832153</ele>
                <time>2009-06-27T07:51:08Z</time>
            </trkpt>
            <trkpt lon="101.944382" lat="14.149242">
                <ele>178.461914</ele>
                <time>2009-06-27T07:54:57Z</time>
            </trkpt>
            <trkpt lon="101.944470" lat="14.149181">
                <ele>179.903809</ele>
                <time>2009-06-27T07:55:11Z</time>
            </trkpt>
            <trkpt lon="101.944482" lat="14.149088">
                <ele>181.345825</ele>
                <time>2009-06-27T07:55:42Z</time>
            </trkpt>
            <trkpt lon="101.943549" lat="14.148597">
                <ele>171.732666</ele>
                <time>2009-06-27T07:56:12Z</time>
            </trkpt>
            <trkpt lon="101.941786" lat="14.148229">
                <ele>159.235474</ele>
                <time>2009-06-27T07:57:03Z</time>
            </trkpt>
            <trkpt lon="101.941767" lat="14.147602">
                <ele>155.870972</ele>
                <time>2009-06-27T07:57:44Z</time>
            </trkpt>
            <trkpt lon="101.940882" lat="14.147138">
                <ele>147.699707</ele>
                <time>2009-06-27T07:58:13Z</time>
            </trkpt>
            <trkpt lon="101.940114" lat="14.147002">
                <ele>140.009155</ele>
                <time>2009-06-27T07:58:35Z</time>
            </trkpt>
            <trkpt lon="101.940296" lat="14.145602">
                <ele>140.489868</ele>
                <time>2009-06-27T07:59:25Z</time>
            </trkpt>
            <trkpt lon="101.940195" lat="14.145533">
                <ele>140.970459</ele>
                <time>2009-06-27T07:59:31Z</time>
            </trkpt>
            <trkpt lon="101.939596" lat="14.145468">
                <ele>140.009155</ele>
                <time>2009-06-27T07:59:46Z</time>
            </trkpt>
            <trkpt lon="101.938855" lat="14.145375">
                <ele>134.721924</ele>
                <time>2009-06-27T08:00:00Z</time>
            </trkpt>
            <trkpt lon="101.938603" lat="14.145516">
                <ele>127.511963</ele>
                <time>2009-06-27T08:00:06Z</time>
            </trkpt>
            <trkpt lon="101.937538" lat="14.146723">
                <ele>131.837891</ele>
                <time>2009-06-27T08:00:46Z</time>
            </trkpt>
            <trkpt lon="101.937011" lat="14.146960">
                <ele>135.683106</ele>
                <time>2009-06-27T08:01:14Z</time>
            </trkpt>
            <trkpt lon="101.936644" lat="14.147144">
                <ele>135.202515</ele>
                <time>2009-06-27T08:01:28Z</time>
            </trkpt>
            <trkpt lon="101.936105" lat="14.147365">
                <ele>133.279907</ele>
                <time>2009-06-27T08:01:41Z</time>
            </trkpt>
            <trkpt lon="101.935503" lat="14.147403">
                <ele>131.837891</ele>
                <time>2009-06-27T08:01:52Z</time>
            </trkpt>
            <trkpt lon="101.934924" lat="14.147328">
                <ele>129.434692</ele>
                <time>2009-06-27T08:02:02Z</time>
            </trkpt>
            <trkpt lon="101.934354" lat="14.146717">
                <ele>121.263550</ele>
                <time>2009-06-27T08:02:18Z</time>
            </trkpt>
            <trkpt lon="101.932058" lat="14.145662">
                <ele>101.556397</ele>
                <time>2009-06-27T08:03:00Z</time>
            </trkpt>
            <trkpt lon="101.931590" lat="14.145487">
                <ele>97.230469</ele>
                <time>2009-06-27T08:03:07Z</time>
            </trkpt>
            <trkpt lon="101.930548" lat="14.145397">
                <ele>91.462524</ele>
                <time>2009-06-27T08:03:22Z</time>
            </trkpt>
            <trkpt lon="101.930106" lat="14.145453">
                <ele>88.578735</ele>
                <time>2009-06-27T08:03:31Z</time>
            </trkpt>
            <trkpt lon="101.929048" lat="14.146214">
                <ele>82.810791</ele>
                <time>2009-06-27T08:04:07Z</time>
            </trkpt>
            <trkpt lon="101.928395" lat="14.146215">
                <ele>80.407471</ele>
                <time>2009-06-27T08:04:18Z</time>
            </trkpt>
            <trkpt lon="101.927903" lat="14.145988">
                <ele>77.523438</ele>
                <time>2009-06-27T08:04:27Z</time>
            </trkpt>
            <trkpt lon="101.927635" lat="14.145672">
                <ele>75.600830</ele>
                <time>2009-06-27T08:04:33Z</time>
            </trkpt>
            <trkpt lon="101.927022" lat="14.145121">
                <ele>71.274902</ele>
                <time>2009-06-27T08:04:44Z</time>
            </trkpt>
            <trkpt lon="101.926829" lat="14.145000">
                <ele>69.352295</ele>
                <time>2009-06-27T08:04:47Z</time>
            </trkpt>
            <trkpt lon="101.925763" lat="14.144576">
                <ele>59.258423</ele>
                <time>2009-06-27T08:05:06Z</time>
            </trkpt>
            <trkpt lon="101.924535" lat="14.144588">
                <ele>45.319214</ele>
                <time>2009-06-27T08:05:30Z</time>
            </trkpt>
            <trkpt lon="101.923938" lat="14.144835">
                <ele>44.838623</ele>
                <time>2009-06-27T08:05:44Z</time>
            </trkpt>
            <trkpt lon="101.920952" lat="14.143979">
                <ele>38.109375</ele>
                <time>2009-06-27T08:06:47Z</time>
            </trkpt>
            <trkpt lon="101.920243" lat="14.144371">
                <ele>35.225464</ele>
                <time>2009-06-27T08:07:07Z</time>
            </trkpt>
            <trkpt lon="101.920016" lat="14.144191">
                <ele>37.628662</ele>
                <time>2009-06-27T08:07:21Z</time>
            </trkpt>
            <trkpt lon="101.919792" lat="14.143187">
                <ele>40.032105</ele>
                <time>2009-06-27T08:07:46Z</time>
            </trkpt>
            <trkpt lon="101.919654" lat="14.142795">
                <ele>39.070679</ele>
                <time>2009-06-27T08:07:54Z</time>
            </trkpt>
            <trkpt lon="101.918449" lat="14.141234">
                <ele>47.241821</ele>
                <time>2009-06-27T08:09:18Z</time>
            </trkpt>
            <trkpt lon="101.917959" lat="14.140248">
                <ele>43.877319</ele>
                <time>2009-06-27T08:09:49Z</time>
            </trkpt>
            <trkpt lon="101.917920" lat="14.139210">
                <ele>39.070679</ele>
                <time>2009-06-27T08:10:07Z</time>
            </trkpt>
            <trkpt lon="101.918115" lat="14.138146">
                <ele>37.628662</ele>
                <time>2009-06-27T08:10:24Z</time>
            </trkpt>
            <trkpt lon="101.918999" lat="14.135338">
                <ele>35.706055</ele>
                <time>2009-06-27T08:11:23Z</time>
            </trkpt>
            <trkpt lon="101.918876" lat="14.133491">
                <ele>35.706055</ele>
                <time>2009-06-27T08:11:58Z</time>
            </trkpt>
            <trkpt lon="101.918576" lat="14.132314">
                <ele>36.186768</ele>
                <time>2009-06-27T08:12:25Z</time>
            </trkpt>
            <trkpt lon="101.917651" lat="14.130775">
                <ele>34.744873</ele>
                <time>2009-06-27T08:13:05Z</time>
            </trkpt>
            <trkpt lon="101.917478" lat="14.130091">
                <ele>35.225464</ele>
                <time>2009-06-27T08:13:19Z</time>
            </trkpt>
            <trkpt lon="101.917214" lat="14.129570">
                <ele>33.302856</ele>
                <time>2009-06-27T08:13:33Z</time>
            </trkpt>
            <trkpt lon="101.915758" lat="14.129361">
                <ele>35.706055</ele>
                <time>2009-06-27T08:14:13Z</time>
            </trkpt>
            <trkpt lon="101.915410" lat="14.129114">
                <ele>34.744873</ele>
                <time>2009-06-27T08:14:23Z</time>
            </trkpt>
            <trkpt lon="101.914294" lat="14.127743">
                <ele>37.148071</ele>
                <time>2009-06-27T08:15:18Z</time>
            </trkpt>
            <trkpt lon="101.913495" lat="14.126719">
                <ele>34.264160</ele>
                <time>2009-06-27T08:15:53Z</time>
            </trkpt>
            <trkpt lon="101.912347" lat="14.127165">
                <ele>41.954712</ele>
                <time>2009-06-27T08:16:35Z</time>
            </trkpt>
            <trkpt lon="101.910663" lat="14.127285">
                <ele>44.358032</ele>
                <time>2009-06-27T08:17:17Z</time>
            </trkpt>
            <trkpt lon="101.909708" lat="14.127910">
                <ele>44.838623</ele>
                <time>2009-06-27T08:18:03Z</time>
            </trkpt>
            <trkpt lon="101.909512" lat="14.128494">
                <ele>44.838623</ele>
                <time>2009-06-27T08:18:34Z</time>
            </trkpt>
            <trkpt lon="101.909712" lat="14.129450">
                <ele>49.164551</ele>
                <time>2009-06-27T08:19:19Z</time>
            </trkpt>
            <trkpt lon="101.909423" lat="14.130389">
                <ele>48.683960</ele>
                <time>2009-06-27T08:19:56Z</time>
            </trkpt>
            <trkpt lon="101.909087" lat="14.130914">
                <ele>53.009766</ele>
                <time>2009-06-27T08:20:25Z</time>
            </trkpt>
            <trkpt lon="101.908503" lat="14.131624">
                <ele>52.048584</ele>
                <time>2009-06-27T08:21:00Z</time>
            </trkpt>
            <trkpt lon="101.908075" lat="14.132102">
                <ele>47.722534</ele>
                <time>2009-06-27T08:21:12Z</time>
            </trkpt>
            <trkpt lon="101.907969" lat="14.132385">
                <ele>44.358032</ele>
                <time>2009-06-27T08:21:19Z</time>
            </trkpt>
            <trkpt lon="101.908103" lat="14.135595">
                <ele>53.971191</ele>
                <time>2009-06-27T08:23:34Z</time>
            </trkpt>
            <trkpt lon="101.907887" lat="14.135962">
                <ele>51.567871</ele>
                <time>2009-06-27T08:23:45Z</time>
            </trkpt>
            <trkpt lon="101.907010" lat="14.136293">
                <ele>52.048584</ele>
                <time>2009-06-27T08:24:13Z</time>
            </trkpt>
            <trkpt lon="101.905838" lat="14.136951">
                <ele>58.297119</ele>
                <time>2009-06-27T08:25:17Z</time>
            </trkpt>
            <trkpt lon="101.904708" lat="14.137180">
                <ele>60.700317</ele>
                <time>2009-06-27T08:26:00Z</time>
            </trkpt>
            <trkpt lon="101.904181" lat="14.137291">
                <ele>60.700317</ele>
                <time>2009-06-27T08:26:16Z</time>
            </trkpt>
            <trkpt lon="101.901814" lat="14.137387">
                <ele>46.280640</ele>
                <time>2009-06-27T08:26:50Z</time>
            </trkpt>
            <trkpt lon="101.901009" lat="14.137128">
                <ele>43.877319</ele>
                <time>2009-06-27T08:27:04Z</time>
            </trkpt>
            <trkpt lon="101.900403" lat="14.137136">
                <ele>45.799927</ele>
                <time>2009-06-27T08:27:17Z</time>
            </trkpt>
            <trkpt lon="101.899982" lat="14.136967">
                <ele>48.203369</ele>
                <time>2009-06-27T08:27:31Z</time>
            </trkpt>
            <trkpt lon="101.899609" lat="14.136446">
                <ele>46.761231</ele>
                <time>2009-06-27T08:27:45Z</time>
            </trkpt>
            <trkpt lon="101.899171" lat="14.134680">
                <ele>47.241821</ele>
                <time>2009-06-27T08:28:20Z</time>
            </trkpt>
            <trkpt lon="101.898883" lat="14.134527">
                <ele>46.761231</ele>
                <time>2009-06-27T08:28:26Z</time>
            </trkpt>
            <trkpt lon="101.897146" lat="14.134422">
                <ele>47.241821</ele>
                <time>2009-06-27T08:29:00Z</time>
            </trkpt>
            <trkpt lon="101.897127" lat="14.135819">
                <ele>50.125977</ele>
                <time>2009-06-27T08:29:39Z</time>
            </trkpt>
            <trkpt lon="101.896267" lat="14.137562">
                <ele>60.700317</ele>
                <time>2009-06-27T08:39:34Z</time>
            </trkpt>
            <trkpt lon="101.895788" lat="14.138310">
                <ele>63.584351</ele>
                <time>2009-06-27T08:40:55Z</time>
            </trkpt>
            <trkpt lon="101.896077" lat="14.139924">
                <ele>64.545654</ele>
                <time>2009-06-27T08:41:34Z</time>
            </trkpt>
            <trkpt lon="101.896465" lat="14.140748">
                <ele>66.948975</ele>
                <time>2009-06-27T08:42:01Z</time>
            </trkpt>
            <trkpt lon="101.896660" lat="14.141430">
                <ele>65.987671</ele>
                <time>2009-06-27T08:42:21Z</time>
            </trkpt>
            <trkpt lon="101.896159" lat="14.141921">
                <ele>68.390869</ele>
                <time>2009-06-27T08:42:45Z</time>
            </trkpt>
            <trkpt lon="101.895308" lat="14.142482">
                <ele>66.948975</ele>
                <time>2009-06-27T08:43:09Z</time>
            </trkpt>
            <trkpt lon="101.892820" lat="14.142661">
                <ele>59.258423</ele>
                <time>2009-06-27T08:43:44Z</time>
            </trkpt>
            <trkpt lon="101.892560" lat="14.142826">
                <ele>59.258423</ele>
                <time>2009-06-27T08:43:50Z</time>
            </trkpt>
            <trkpt lon="101.892149" lat="14.143509">
                <ele>64.545654</ele>
                <time>2009-06-27T08:44:11Z</time>
            </trkpt>
            <trkpt lon="101.891730" lat="14.144187">
                <ele>64.065063</ele>
                <time>2009-06-27T08:44:29Z</time>
            </trkpt>
            <trkpt lon="101.891255" lat="14.144491">
                <ele>62.142334</ele>
                <time>2009-06-27T08:44:40Z</time>
            </trkpt>
            <trkpt lon="101.886166" lat="14.145838">
                <ele>56.855103</ele>
                <time>2009-06-27T08:46:25Z</time>
            </trkpt>
            <trkpt lon="101.885210" lat="14.145140">
                <ele>57.816528</ele>
                <time>2009-06-27T08:46:56Z</time>
            </trkpt>
            <trkpt lon="101.880587" lat="14.140731">
                <ele>49.164551</ele>
                <time>2009-06-27T08:48:29Z</time>
            </trkpt>
            <trkpt lon="101.880456" lat="14.140458">
                <ele>48.683960</ele>
                <time>2009-06-27T08:48:39Z</time>
            </trkpt>
            <trkpt lon="101.880490" lat="14.140636">
                <ele>48.203369</ele>
                <time>2009-06-27T08:48:45Z</time>
            </trkpt>
            <trkpt lon="101.878657" lat="14.138918">
                <ele>49.164551</ele>
                <time>2009-06-27T08:49:33Z</time>
            </trkpt>
            <trkpt lon="101.878335" lat="14.138665">
                <ele>49.164551</ele>
                <time>2009-06-27T08:49:41Z</time>
            </trkpt>
            <trkpt lon="101.878106" lat="14.138707">
                <ele>48.203369</ele>
                <time>2009-06-27T08:49:47Z</time>
            </trkpt>
            <trkpt lon="101.876632" lat="14.139760">
                <ele>44.838623</ele>
                <time>2009-06-27T08:50:16Z</time>
            </trkpt>
            <trkpt lon="101.876282" lat="14.139993">
                <ele>43.877319</ele>
                <time>2009-06-27T08:50:22Z</time>
            </trkpt>
            <trkpt lon="101.874446" lat="14.140091">
                <ele>43.877319</ele>
                <time>2009-06-27T08:50:50Z</time>
            </trkpt>
            <trkpt lon="101.873068" lat="14.140134">
                <ele>40.993408</ele>
                <time>2009-06-27T08:51:11Z</time>
            </trkpt>
            <trkpt lon="101.871586" lat="14.140434">
                <ele>39.551269</ele>
                <time>2009-06-27T08:51:39Z</time>
            </trkpt>
            <trkpt lon="101.870585" lat="14.140368">
                <ele>39.551269</ele>
                <time>2009-06-27T08:51:51Z</time>
            </trkpt>
            <trkpt lon="101.870007" lat="14.140538">
                <ele>37.148071</ele>
                <time>2009-06-27T08:52:01Z</time>
            </trkpt>
            <trkpt lon="101.869307" lat="14.140328">
                <ele>36.186768</ele>
                <time>2009-06-27T08:52:13Z</time>
            </trkpt>
            <trkpt lon="101.869050" lat="14.140474">
                <ele>35.706055</ele>
                <time>2009-06-27T08:52:20Z</time>
            </trkpt>
            <trkpt lon="101.869017" lat="14.140826">
                <ele>35.225464</ele>
                <time>2009-06-27T08:52:27Z</time>
            </trkpt>
            <trkpt lon="101.868255" lat="14.141682">
                <ele>39.070679</ele>
                <time>2009-06-27T08:52:50Z</time>
            </trkpt>
            <trkpt lon="101.867547" lat="14.142133">
                <ele>40.032105</ele>
                <time>2009-06-27T08:53:11Z</time>
            </trkpt>
            <trkpt lon="101.867745" lat="14.142843">
                <ele>38.590088</ele>
                <time>2009-06-27T08:53:29Z</time>
            </trkpt>
            <trkpt lon="101.867599" lat="14.143277">
                <ele>39.070679</ele>
                <time>2009-06-27T08:53:42Z</time>
            </trkpt>
            <trkpt lon="101.867446" lat="14.143316">
                <ele>40.032105</ele>
                <time>2009-06-27T08:54:01Z</time>
            </trkpt>
        </trkseg>
    </trk>
</gpx>